sensor_id;sensor_type;location;lat;lon;timestamp;P1;durP1;ratioP1;P2;durP2;ratioP2
19609;SDS011;9952;47.122;-1.638;2024-03-07T00:01:36;14.43;;;6.63;;
19609;SDS011;9952;47.122;-1.638;2024-03-07T00:06:17;10.30;;;7.20;;
19609;SDS011;9952;47.122;-1.638;2024-03-07T00:10:57;14.37;;;6.27;;
19609;SDS011;9952;47.122;-1.638;2024-03-07T00:15:38;8.87;;;5.90;;
19609;SDS011;9952;47.122;-1.638;2024-03-07T00:20:20;7.83;;;5.27;;
19609;SDS011;9952;47.122;-1.638;2024-03-07T00:25:01;8.67;;;4.93;;
19609;SDS011;9952;47.122;-1.638;2024-03-07T00:29:45;7.43;;;5.27;;
19609;SDS011;9952;47.122;-1.638;2024-03-07T00:34:32;6.83;;;4.83;;
19609;SDS011;9952;47.122;-1.638;2024-03-07T00:39:13;7.50;;;4.90;;
19609;SDS011;9952;47.122;-1.638;2024-03-07T00:43:54;6.47;;;4.77;;
19609;SDS011;9952;47.122;-1.638;2024-03-07T00:48:34;6.53;;;4.80;;
19609;SDS011;9952;47.122;-1.638;2024-03-07T00:53:15;5.63;;;4.77;;
19609;SDS011;9952;47.122;-1.638;2024-03-07T00:57:56;7.63;;;4.87;;
19609;SDS011;9952;47.122;-1.638;2024-03-07T01:02:36;12.23;;;4.90;;
19609;SDS011;9952;47.122;-1.638;2024-03-07T01:07:18;7.43;;;4.57;;
19609;SDS011;9952;47.122;-1.638;2024-03-07T01:11:59;8.73;;;4.87;;
19609;SDS011;9952;47.122;-1.638;2024-03-07T01:16:40;6.77;;;4.63;;
19609;SDS011;9952;47.122;-1.638;2024-03-07T01:21:21;8.70;;;4.67;;
19609;SDS011;9952;47.122;-1.638;2024-03-07T01:26:01;6.97;;;4.10;;
19609;SDS011;9952;47.122;-1.638;2024-03-07T01:30:42;9.23;;;4.07;;
19609;SDS011;9952;47.122;-1.638;2024-03-07T01:35:23;10.67;;;3.93;;
19609;SDS011;9952;47.122;-1.638;2024-03-07T01:40:04;5.43;;;3.37;;
19609;SDS011;9952;47.122;-1.638;2024-03-07T01:44:45;6.37;;;3.20;;
19609;SDS011;9952;47.122;-1.638;2024-03-07T01:49:26;6.50;;;3.37;;
19609;SDS011;9952;47.122;-1.638;2024-03-07T01:54:07;7.53;;;3.27;;
19609;SDS011;9952;47.122;-1.638;2024-03-07T01:58:49;8.10;;;2.50;;
19609;SDS011;9952;47.122;-1.638;2024-03-07T02:03:33;7.80;;;3.57;;
19609;SDS011;9952;47.122;-1.638;2024-03-07T02:08:16;8.23;;;3.30;;
19609;SDS011;9952;47.122;-1.638;2024-03-07T02:12:57;6.87;;;2.67;;
19609;SDS011;9952;47.122;-1.638;2024-03-07T02:17:38;5.47;;;2.33;;
19609;SDS011;9952;47.122;-1.638;2024-03-07T02:22:19;4.23;;;2.63;;
19609;SDS011;9952;47.122;-1.638;2024-03-07T02:27:00;7.10;;;2.10;;
19609;SDS011;9952;47.122;-1.638;2024-03-07T02:31:40;12.90;;;2.23;;
19609;SDS011;9952;47.122;-1.638;2024-03-07T02:36:21;8.83;;;2.90;;
19609;SDS011;9952;47.122;-1.638;2024-03-07T02:41:02;9.97;;;2.83;;
19609;SDS011;9952;47.122;-1.638;2024-03-07T02:45:43;9.50;;;2.73;;
19609;SDS011;9952;47.122;-1.638;2024-03-07T02:50:24;5.90;;;2.40;;
19609;SDS011;9952;47.122;-1.638;2024-03-07T02:55:05;6.17;;;2.30;;
19609;SDS011;9952;47.122;-1.638;2024-03-07T02:59:46;7.03;;;2.67;;
19609;SDS011;9952;47.122;-1.638;2024-03-07T03:04:26;11.07;;;2.90;;
19609;SDS011;9952;47.122;-1.638;2024-03-07T03:09:07;13.00;;;2.70;;
19609;SDS011;9952;47.122;-1.638;2024-03-07T03:13:53;5.33;;;2.37;;
19609;SDS011;9952;47.122;-1.638;2024-03-07T03:18:34;7.70;;;2.57;;
19609;SDS011;9952;47.122;-1.638;2024-03-07T03:23:14;9.20;;;2.60;;
19609;SDS011;9952;47.122;-1.638;2024-03-07T03:27:55;8.37;;;2.53;;
19609;SDS011;9952;47.122;-1.638;2024-03-07T03:32:36;6.50;;;2.30;;
19609;SDS011;9952;47.122;-1.638;2024-03-07T03:37:16;8.33;;;2.70;;
19609;SDS011;9952;47.122;-1.638;2024-03-07T03:41:57;8.97;;;2.80;;
19609;SDS011;9952;47.122;-1.638;2024-03-07T03:46:38;8.70;;;3.30;;
19609;SDS011;9952;47.122;-1.638;2024-03-07T03:51:18;7.40;;;3.00;;
19609;SDS011;9952;47.122;-1.638;2024-03-07T03:56:01;13.63;;;3.23;;
19609;SDS011;9952;47.122;-1.638;2024-03-07T04:00:44;9.20;;;2.93;;
19609;SDS011;9952;47.122;-1.638;2024-03-07T04:05:25;8.33;;;2.20;;
19609;SDS011;9952;47.122;-1.638;2024-03-07T04:10:06;9.63;;;2.43;;
19609;SDS011;9952;47.122;-1.638;2024-03-07T04:14:49;12.37;;;2.17;;
19609;SDS011;9952;47.122;-1.638;2024-03-07T04:19:30;8.63;;;2.50;;
19609;SDS011;9952;47.122;-1.638;2024-03-07T04:24:13;9.73;;;2.20;;
19609;SDS011;9952;47.122;-1.638;2024-03-07T04:28:53;5.90;;;1.80;;
19609;SDS011;9952;47.122;-1.638;2024-03-07T04:33:34;11.47;;;2.30;;
19609;SDS011;9952;47.122;-1.638;2024-03-07T04:38:14;7.30;;;2.13;;
19609;SDS011;9952;47.122;-1.638;2024-03-07T04:42:55;7.87;;;2.27;;
19609;SDS011;9952;47.122;-1.638;2024-03-07T04:47:36;10.27;;;2.50;;
19609;SDS011;9952;47.122;-1.638;2024-03-07T04:52:17;13.33;;;2.47;;
19609;SDS011;9952;47.122;-1.638;2024-03-07T04:56:57;9.43;;;2.37;;
19609;SDS011;9952;47.122;-1.638;2024-03-07T05:01:39;9.60;;;2.17;;
19609;SDS011;9952;47.122;-1.638;2024-03-07T05:06:20;9.63;;;2.27;;
19609;SDS011;9952;47.122;-1.638;2024-03-07T05:11:01;8.23;;;1.73;;
19609;SDS011;9952;47.122;-1.638;2024-03-07T05:15:41;11.77;;;2.10;;
19609;SDS011;9952;47.122;-1.638;2024-03-07T05:20:22;6.57;;;2.03;;
19609;SDS011;9952;47.122;-1.638;2024-03-07T05:25:03;7.70;;;2.00;;
19609;SDS011;9952;47.122;-1.638;2024-03-07T05:29:45;4.43;;;1.93;;
19609;SDS011;9952;47.122;-1.638;2024-03-07T05:34:26;8.30;;;1.90;;
19609;SDS011;9952;47.122;-1.638;2024-03-07T05:39:08;5.60;;;1.80;;
19609;SDS011;9952;47.122;-1.638;2024-03-07T05:43:50;7.00;;;2.10;;
19609;SDS011;9952;47.122;-1.638;2024-03-07T05:48:31;7.80;;;1.93;;
19609;SDS011;9952;47.122;-1.638;2024-03-07T05:53:12;7.00;;;1.97;;
19609;SDS011;9952;47.122;-1.638;2024-03-07T05:57:52;6.57;;;2.50;;
19609;SDS011;9952;47.122;-1.638;2024-03-07T06:02:33;5.93;;;2.07;;
19609;SDS011;9952;47.122;-1.638;2024-03-07T06:07:14;9.70;;;2.07;;
19609;SDS011;9952;47.122;-1.638;2024-03-07T06:11:54;5.13;;;1.77;;
19609;SDS011;9952;47.122;-1.638;2024-03-07T06:16:36;6.47;;;1.73;;
19609;SDS011;9952;47.122;-1.638;2024-03-07T06:21:18;4.03;;;1.60;;
19609;SDS011;9952;47.122;-1.638;2024-03-07T06:25:58;6.83;;;1.97;;
19609;SDS011;9952;47.122;-1.638;2024-03-07T06:30:41;7.83;;;2.10;;
19609;SDS011;9952;47.122;-1.638;2024-03-07T06:35:25;6.43;;;3.03;;
19609;SDS011;9952;47.122;-1.638;2024-03-07T06:40:06;10.07;;;1.93;;
19609;SDS011;9952;47.122;-1.638;2024-03-07T06:44:49;8.60;;;2.87;;
19609;SDS011;9952;47.122;-1.638;2024-03-07T06:49:30;4.53;;;3.23;;
19609;SDS011;9952;47.122;-1.638;2024-03-07T06:54:11;7.23;;;2.37;;
19609;SDS011;9952;47.122;-1.638;2024-03-07T06:58:52;4.77;;;2.67;;
19609;SDS011;9952;47.122;-1.638;2024-03-07T07:03:33;5.60;;;2.20;;
19609;SDS011;9952;47.122;-1.638;2024-03-07T07:08:15;8.50;;;1.90;;
19609;SDS011;9952;47.122;-1.638;2024-03-07T07:12:56;14.07;;;4.33;;
19609;SDS011;9952;47.122;-1.638;2024-03-07T07:17:37;5.50;;;2.00;;
19609;SDS011;9952;47.122;-1.638;2024-03-07T07:22:17;7.80;;;3.40;;
19609;SDS011;9952;47.122;-1.638;2024-03-07T07:26:58;5.83;;;1.80;;
19609;SDS011;9952;47.122;-1.638;2024-03-07T07:31:39;5.07;;;2.40;;
19609;SDS011;9952;47.122;-1.638;2024-03-07T07:36:19;6.57;;;2.10;;
19609;SDS011;9952;47.122;-1.638;2024-03-07T07:41:00;6.67;;;1.80;;
19609;SDS011;9952;47.122;-1.638;2024-03-07T07:45:41;6.77;;;1.80;;
19609;SDS011;9952;47.122;-1.638;2024-03-07T07:50:23;3.57;;;1.40;;
19609;SDS011;9952;47.122;-1.638;2024-03-07T07:55:04;3.83;;;1.50;;
19609;SDS011;9952;47.122;-1.638;2024-03-07T07:59:45;3.13;;;1.20;;
19609;SDS011;9952;47.122;-1.638;2024-03-07T08:04:25;6.20;;;1.33;;
19609;SDS011;9952;47.122;-1.638;2024-03-07T08:09:06;4.60;;;1.73;;
19609;SDS011;9952;47.122;-1.638;2024-03-07T08:13:49;3.60;;;1.60;;
19609;SDS011;9952;47.122;-1.638;2024-03-07T08:18:30;6.43;;;1.90;;
19609;SDS011;9952;47.122;-1.638;2024-03-07T08:23:11;4.47;;;1.40;;
19609;SDS011;9952;47.122;-1.638;2024-03-07T08:27:55;7.07;;;1.47;;
19609;SDS011;9952;47.122;-1.638;2024-03-07T08:32:38;7.23;;;2.00;;
19609;SDS011;9952;47.122;-1.638;2024-03-07T08:37:19;2.60;;;1.30;;
19609;SDS011;9952;47.122;-1.638;2024-03-07T08:42:01;3.53;;;1.90;;
19609;SDS011;9952;47.122;-1.638;2024-03-07T08:46:41;4.10;;;1.40;;
19609;SDS011;9952;47.122;-1.638;2024-03-07T08:51:23;4.70;;;1.40;;
19609;SDS011;9952;47.122;-1.638;2024-03-07T08:56:04;3.67;;;1.20;;
19609;SDS011;9952;47.122;-1.638;2024-03-07T09:00:45;4.93;;;1.13;;
19609;SDS011;9952;47.122;-1.638;2024-03-07T09:05:26;3.87;;;1.20;;
19609;SDS011;9952;47.122;-1.638;2024-03-07T09:10:07;3.83;;;1.20;;
19609;SDS011;9952;47.122;-1.638;2024-03-07T09:14:49;3.77;;;1.10;;
19609;SDS011;9952;47.122;-1.638;2024-03-07T09:19:31;4.80;;;1.03;;
19609;SDS011;9952;47.122;-1.638;2024-03-07T09:24:12;5.60;;;1.20;;
19609;SDS011;9952;47.122;-1.638;2024-03-07T09:28:55;1.67;;;0.93;;
19609;SDS011;9952;47.122;-1.638;2024-03-07T09:33:35;2.90;;;0.70;;
19609;SDS011;9952;47.122;-1.638;2024-03-07T09:38:17;4.77;;;1.10;;
19609;SDS011;9952;47.122;-1.638;2024-03-07T09:42:58;2.87;;;0.80;;
19609;SDS011;9952;47.122;-1.638;2024-03-07T09:47:40;4.83;;;1.17;;
19609;SDS011;9952;47.122;-1.638;2024-03-07T09:52:23;4.50;;;1.00;;
19609;SDS011;9952;47.122;-1.638;2024-03-07T09:57:06;7.10;;;1.27;;
19609;SDS011;9952;47.122;-1.638;2024-03-07T10:01:50;5.57;;;1.80;;
19609;SDS011;9952;47.122;-1.638;2024-03-07T10:06:34;5.93;;;1.03;;
19609;SDS011;9952;47.122;-1.638;2024-03-07T10:11:15;4.17;;;1.10;;
19609;SDS011;9952;47.122;-1.638;2024-03-07T10:15:58;2.20;;;1.20;;
19609;SDS011;9952;47.122;-1.638;2024-03-07T10:20:42;3.70;;;1.13;;
19609;SDS011;9952;47.122;-1.638;2024-03-07T10:25:24;3.00;;;1.30;;
19609;SDS011;9952;47.122;-1.638;2024-03-07T10:30:07;2.50;;;1.03;;
19609;SDS011;9952;47.122;-1.638;2024-03-07T10:34:51;3.07;;;0.80;;
19609;SDS011;9952;47.122;-1.638;2024-03-07T10:39:33;4.30;;;1.13;;
19609;SDS011;9952;47.122;-1.638;2024-03-07T10:44:36;6.30;;;0.90;;
19609;SDS011;9952;47.122;-1.638;2024-03-07T10:49:21;3.73;;;1.03;;
19609;SDS011;9952;47.122;-1.638;2024-03-07T10:59:18;2.53;;;1.17;;
19609;SDS011;9952;47.122;-1.638;2024-03-07T11:04:00;3.00;;;0.63;;
19609;SDS011;9952;47.122;-1.638;2024-03-07T11:08:45;2.40;;;0.70;;
19609;SDS011;9952;47.122;-1.638;2024-03-07T11:13:26;3.47;;;0.90;;
19609;SDS011;9952;47.122;-1.638;2024-03-07T11:18:09;1.80;;;0.63;;
19609;SDS011;9952;47.122;-1.638;2024-03-07T11:22:52;4.30;;;0.80;;
19609;SDS011;9952;47.122;-1.638;2024-03-07T11:27:36;2.37;;;0.70;;
19609;SDS011;9952;47.122;-1.638;2024-03-07T11:32:19;4.20;;;0.63;;
19609;SDS011;9952;47.122;-1.638;2024-03-07T11:37:03;4.27;;;0.80;;
19609;SDS011;9952;47.122;-1.638;2024-03-07T11:41:47;1.63;;;0.67;;
19609;SDS011;9952;47.122;-1.638;2024-03-07T11:46:29;2.60;;;0.63;;
19609;SDS011;9952;47.122;-1.638;2024-03-07T11:51:12;2.00;;;0.57;;
19609;SDS011;9952;47.122;-1.638;2024-03-07T11:55:53;2.13;;;0.40;;
19609;SDS011;9952;47.122;-1.638;2024-03-07T12:00:34;3.87;;;0.50;;
19609;SDS011;9952;47.122;-1.638;2024-03-07T12:05:15;1.47;;;0.63;;
19609;SDS011;9952;47.122;-1.638;2024-03-07T12:09:57;1.63;;;0.60;;
19609;SDS011;9952;47.122;-1.638;2024-03-07T12:14:37;3.13;;;0.93;;
19609;SDS011;9952;47.122;-1.638;2024-03-07T12:19:18;2.50;;;0.70;;
19609;SDS011;9952;47.122;-1.638;2024-03-07T12:23:59;1.27;;;0.63;;
19609;SDS011;9952;47.122;-1.638;2024-03-07T12:28:50;3.47;;;0.40;;
19609;SDS011;9952;47.122;-1.638;2024-03-07T12:33:33;2.70;;;0.60;;
19609;SDS011;9952;47.122;-1.638;2024-03-07T12:38:19;2.50;;;0.50;;
19609;SDS011;9952;47.122;-1.638;2024-03-07T12:43:16;3.27;;;0.60;;
19609;SDS011;9952;47.122;-1.638;2024-03-07T12:47:57;1.43;;;0.60;;
19609;SDS011;9952;47.122;-1.638;2024-03-07T12:52:44;2.47;;;0.60;;
19609;SDS011;9952;47.122;-1.638;2024-03-07T12:57:26;2.00;;;0.83;;
19609;SDS011;9952;47.122;-1.638;2024-03-07T13:02:07;1.73;;;0.70;;
19609;SDS011;9952;47.122;-1.638;2024-03-07T13:06:48;2.37;;;0.87;;
19609;SDS011;9952;47.122;-1.638;2024-03-07T13:11:29;5.30;;;0.70;;
19609;SDS011;9952;47.122;-1.638;2024-03-07T13:16:12;2.13;;;0.80;;
19609;SDS011;9952;47.122;-1.638;2024-03-07T13:20:52;3.70;;;0.73;;
19609;SDS011;9952;47.122;-1.638;2024-03-07T13:25:33;3.10;;;0.77;;
19609;SDS011;9952;47.122;-1.638;2024-03-07T13:30:14;2.43;;;0.77;;
19609;SDS011;9952;47.122;-1.638;2024-03-07T13:35:02;1.30;;;0.60;;
19609;SDS011;9952;47.122;-1.638;2024-03-07T13:39:43;3.87;;;0.70;;
19609;SDS011;9952;47.122;-1.638;2024-03-07T13:44:25;2.10;;;0.77;;
19609;SDS011;9952;47.122;-1.638;2024-03-07T13:49:07;2.27;;;0.60;;
19609;SDS011;9952;47.122;-1.638;2024-03-07T13:53:54;1.27;;;0.60;;
19609;SDS011;9952;47.122;-1.638;2024-03-07T14:19:13;1.97;;;0.50;;
19609;SDS011;9952;47.122;-1.638;2024-03-07T14:40:05;1.27;;;0.50;;
19609;SDS011;9952;47.122;-1.638;2024-03-07T14:44:53;2.00;;;0.50;;
19609;SDS011;9952;47.122;-1.638;2024-03-07T14:49:34;2.43;;;0.93;;
19609;SDS011;9952;47.122;-1.638;2024-03-07T14:54:16;4.00;;;0.60;;
19609;SDS011;9952;47.122;-1.638;2024-03-07T14:58:56;1.77;;;0.60;;
19609;SDS011;9952;47.122;-1.638;2024-03-07T15:03:38;1.03;;;0.40;;
19609;SDS011;9952;47.122;-1.638;2024-03-07T15:08:19;1.13;;;0.50;;
19609;SDS011;9952;47.122;-1.638;2024-03-07T15:13:02;1.30;;;0.73;;
19609;SDS011;9952;47.122;-1.638;2024-03-07T15:17:44;2.23;;;0.53;;
19609;SDS011;9952;47.122;-1.638;2024-03-07T15:22:25;1.73;;;0.70;;
19609;SDS011;9952;47.122;-1.638;2024-03-07T15:27:06;2.53;;;0.67;;
19609;SDS011;9952;47.122;-1.638;2024-03-07T15:31:46;2.57;;;0.60;;
19609;SDS011;9952;47.122;-1.638;2024-03-07T15:36:28;3.37;;;0.60;;
19609;SDS011;9952;47.122;-1.638;2024-03-07T15:41:09;0.87;;;0.53;;
19609;SDS011;9952;47.122;-1.638;2024-03-07T15:45:51;0.97;;;0.60;;
19609;SDS011;9952;47.122;-1.638;2024-03-07T15:50:32;1.50;;;0.80;;
19609;SDS011;9952;47.122;-1.638;2024-03-07T15:55:13;1.80;;;1.17;;
19609;SDS011;9952;47.122;-1.638;2024-03-07T15:59:54;3.23;;;0.80;;
19609;SDS011;9952;47.122;-1.638;2024-03-07T16:04:36;1.50;;;0.70;;
19609;SDS011;9952;47.122;-1.638;2024-03-07T16:09:16;2.37;;;0.60;;
19609;SDS011;9952;47.122;-1.638;2024-03-07T16:14:02;1.80;;;0.70;;
19609;SDS011;9952;47.122;-1.638;2024-03-07T16:18:43;1.60;;;0.37;;
19609;SDS011;9952;47.122;-1.638;2024-03-07T16:23:23;1.87;;;0.60;;
19609;SDS011;9952;47.122;-1.638;2024-03-07T16:28:04;2.97;;;0.80;;
19609;SDS011;9952;47.122;-1.638;2024-03-07T16:32:51;1.73;;;0.90;;
19609;SDS011;9952;47.122;-1.638;2024-03-07T16:37:43;1.57;;;0.63;;
19609;SDS011;9952;47.122;-1.638;2024-03-07T16:42:24;1.53;;;0.70;;
19609;SDS011;9952;47.122;-1.638;2024-03-07T16:47:05;1.37;;;0.57;;
19609;SDS011;9952;47.122;-1.638;2024-03-07T16:51:49;1.87;;;0.67;;
19609;SDS011;9952;47.122;-1.638;2024-03-07T16:56:35;2.73;;;1.20;;
19609;SDS011;9952;47.122;-1.638;2024-03-07T17:01:17;16.47;;;5.03;;
19609;SDS011;9952;47.122;-1.638;2024-03-07T17:05:57;2.60;;;0.80;;
19609;SDS011;9952;47.122;-1.638;2024-03-07T17:10:40;4.50;;;0.77;;
19609;SDS011;9952;47.122;-1.638;2024-03-07T17:15:22;2.80;;;0.60;;
19609;SDS011;9952;47.122;-1.638;2024-03-07T17:20:03;1.10;;;0.77;;
19609;SDS011;9952;47.122;-1.638;2024-03-07T17:24:44;2.47;;;0.87;;
19609;SDS011;9952;47.122;-1.638;2024-03-07T17:29:26;1.70;;;1.00;;
19609;SDS011;9952;47.122;-1.638;2024-03-07T17:34:07;3.27;;;1.00;;
19609;SDS011;9952;47.122;-1.638;2024-03-07T17:38:47;1.73;;;1.13;;
19609;SDS011;9952;47.122;-1.638;2024-03-07T17:43:28;1.20;;;0.97;;
19609;SDS011;9952;47.122;-1.638;2024-03-07T17:48:09;1.97;;;1.37;;
19609;SDS011;9952;47.122;-1.638;2024-03-07T17:52:50;3.47;;;1.30;;
19609;SDS011;9952;47.122;-1.638;2024-03-07T17:57:43;2.47;;;1.10;;
19609;SDS011;9952;47.122;-1.638;2024-03-07T18:02:26;2.53;;;1.50;;
19609;SDS011;9952;47.122;-1.638;2024-03-07T18:07:09;1.47;;;1.10;;
19609;SDS011;9952;47.122;-1.638;2024-03-07T18:11:49;3.77;;;1.70;;
19609;SDS011;9952;47.122;-1.638;2024-03-07T18:16:30;4.13;;;2.23;;
19609;SDS011;9952;47.122;-1.638;2024-03-07T18:21:12;5.40;;;1.97;;
19609;SDS011;9952;47.122;-1.638;2024-03-07T18:25:52;2.57;;;1.67;;
19609;SDS011;9952;47.122;-1.638;2024-03-07T18:30:34;3.93;;;2.33;;
19609;SDS011;9952;47.122;-1.638;2024-03-07T18:35:15;5.60;;;2.60;;
19609;SDS011;9952;47.122;-1.638;2024-03-07T18:39:56;3.90;;;2.77;;
19609;SDS011;9952;47.122;-1.638;2024-03-07T18:44:38;4.50;;;2.63;;
19609;SDS011;9952;47.122;-1.638;2024-03-07T18:49:18;4.83;;;2.43;;
19609;SDS011;9952;47.122;-1.638;2024-03-07T18:53:59;5.23;;;3.20;;
19609;SDS011;9952;47.122;-1.638;2024-03-07T18:58:40;4.83;;;2.50;;
19609;SDS011;9952;47.122;-1.638;2024-03-07T19:03:25;4.90;;;2.60;;
19609;SDS011;9952;47.122;-1.638;2024-03-07T19:08:08;4.70;;;2.73;;
19609;SDS011;9952;47.122;-1.638;2024-03-07T19:12:59;4.77;;;2.93;;
19609;SDS011;9952;47.122;-1.638;2024-03-07T19:17:39;6.50;;;3.23;;
19609;SDS011;9952;47.122;-1.638;2024-03-07T19:22:20;4.53;;;3.20;;
19609;SDS011;9952;47.122;-1.638;2024-03-07T19:27:01;4.60;;;3.57;;
19609;SDS011;9952;47.122;-1.638;2024-03-07T19:31:47;5.93;;;4.07;;
19609;SDS011;9952;47.122;-1.638;2024-03-07T19:36:29;4.80;;;4.03;;
19609;SDS011;9952;47.122;-1.638;2024-03-07T19:41:09;6.03;;;3.57;;
19609;SDS011;9952;47.122;-1.638;2024-03-07T19:45:51;5.37;;;3.93;;
19609;SDS011;9952;47.122;-1.638;2024-03-07T19:50:32;7.17;;;3.97;;
19609;SDS011;9952;47.122;-1.638;2024-03-07T19:55:13;5.57;;;3.87;;
19609;SDS011;9952;47.122;-1.638;2024-03-07T19:59:58;6.33;;;3.87;;
19609;SDS011;9952;47.122;-1.638;2024-03-07T20:04:39;5.67;;;3.70;;
19609;SDS011;9952;47.122;-1.638;2024-03-07T20:09:19;5.50;;;3.47;;
19609;SDS011;9952;47.122;-1.638;2024-03-07T20:14:00;8.23;;;3.93;;
19609;SDS011;9952;47.122;-1.638;2024-03-07T20:18:41;6.03;;;3.73;;
19609;SDS011;9952;47.122;-1.638;2024-03-07T20:23:23;6.30;;;3.90;;
19609;SDS011;9952;47.122;-1.638;2024-03-07T20:28:07;5.70;;;4.10;;
19609;SDS011;9952;47.122;-1.638;2024-03-07T20:32:48;7.60;;;5.00;;
19609;SDS011;9952;47.122;-1.638;2024-03-07T20:37:29;7.30;;;4.70;;
19609;SDS011;9952;47.122;-1.638;2024-03-07T20:42:10;8.07;;;4.97;;
19609;SDS011;9952;47.122;-1.638;2024-03-07T20:46:50;7.10;;;4.43;;
19609;SDS011;9952;47.122;-1.638;2024-03-07T20:51:32;5.50;;;4.03;;
19609;SDS011;9952;47.122;-1.638;2024-03-07T20:56:19;7.43;;;4.27;;
19609;SDS011;9952;47.122;-1.638;2024-03-07T21:01:00;6.37;;;3.60;;
19609;SDS011;9952;47.122;-1.638;2024-03-07T21:05:40;4.80;;;3.60;;
19609;SDS011;9952;47.122;-1.638;2024-03-07T21:10:24;6.63;;;4.20;;
19609;SDS011;9952;47.122;-1.638;2024-03-07T21:15:08;4.67;;;3.40;;
19609;SDS011;9952;47.122;-1.638;2024-03-07T21:19:49;7.37;;;4.17;;
19609;SDS011;9952;47.122;-1.638;2024-03-07T21:24:30;6.60;;;4.00;;
19609;SDS011;9952;47.122;-1.638;2024-03-07T21:29:11;5.93;;;3.47;;
19609;SDS011;9952;47.122;-1.638;2024-03-07T21:33:53;6.03;;;3.67;;
19609;SDS011;9952;47.122;-1.638;2024-03-07T21:38:33;6.53;;;4.00;;
19609;SDS011;9952;47.122;-1.638;2024-03-07T21:43:15;6.30;;;3.67;;
19609;SDS011;9952;47.122;-1.638;2024-03-07T21:47:56;5.47;;;3.30;;
19609;SDS011;9952;47.122;-1.638;2024-03-07T21:52:37;5.60;;;3.87;;
19609;SDS011;9952;47.122;-1.638;2024-03-07T21:57:19;7.80;;;3.93;;
19609;SDS011;9952;47.122;-1.638;2024-03-07T22:02:02;6.17;;;3.50;;
19609;SDS011;9952;47.122;-1.638;2024-03-07T22:06:43;5.67;;;3.87;;
19609;SDS011;9952;47.122;-1.638;2024-03-07T22:11:24;6.87;;;4.20;;
19609;SDS011;9952;47.122;-1.638;2024-03-07T22:16:06;6.47;;;4.00;;
19609;SDS011;9952;47.122;-1.638;2024-03-07T22:20:49;6.30;;;3.47;;
19609;SDS011;9952;47.122;-1.638;2024-03-07T22:25:29;5.77;;;3.83;;
19609;SDS011;9952;47.122;-1.638;2024-03-07T22:30:10;6.13;;;3.90;;
19609;SDS011;9952;47.122;-1.638;2024-03-07T22:34:56;6.93;;;4.27;;
19609;SDS011;9952;47.122;-1.638;2024-03-07T22:39:37;8.07;;;4.00;;
19609;SDS011;9952;47.122;-1.638;2024-03-07T22:44:17;6.43;;;4.03;;
19609;SDS011;9952;47.122;-1.638;2024-03-07T22:48:58;6.20;;;3.73;;
19609;SDS011;9952;47.122;-1.638;2024-03-07T22:53:39;6.67;;;3.80;;
19609;SDS011;9952;47.122;-1.638;2024-03-07T22:58:20;8.63;;;3.90;;
19609;SDS011;9952;47.122;-1.638;2024-03-07T23:03:00;5.53;;;3.77;;
19609;SDS011;9952;47.122;-1.638;2024-03-07T23:07:44;5.90;;;3.57;;
19609;SDS011;9952;47.122;-1.638;2024-03-07T23:12:25;6.20;;;4.00;;
19609;SDS011;9952;47.122;-1.638;2024-03-07T23:17:05;7.20;;;4.10;;
19609;SDS011;9952;47.122;-1.638;2024-03-07T23:21:48;6.27;;;3.63;;
19609;SDS011;9952;47.122;-1.638;2024-03-07T23:26:29;5.77;;;4.33;;
19609;SDS011;9952;47.122;-1.638;2024-03-07T23:31:09;6.00;;;3.77;;
19609;SDS011;9952;47.122;-1.638;2024-03-07T23:35:50;6.07;;;3.77;;
19609;SDS011;9952;47.122;-1.638;2024-03-07T23:40:31;5.90;;;3.90;;
19609;SDS011;9952;47.122;-1.638;2024-03-07T23:45:13;5.33;;;3.90;;
19609;SDS011;9952;47.122;-1.638;2024-03-07T23:49:53;5.37;;;3.63;;
19609;SDS011;9952;47.122;-1.638;2024-03-07T23:54:35;7.93;;;4.37;;
19609;SDS011;9952;47.122;-1.638;2024-03-07T23:59:16;8.73;;;3.83;;
